Terminal Aerodrome Forecast
Issued by NWS Binghamton, NY

Home | Current Version | Previous Version | Text Only | Print | Product List | Glossary On
Versions: 1 2 3 4 5 6 7 8 9 10 11 12
392
FTUS41 KBGM 291721
TAFAVP
TAF
KAVP 291721Z 2918/3018 34010KT P6SM FEW050
     FM300000 VRB03KT P6SM SKC
      TEMPO 3010/3012 3SM BR FEW004
     FM301600 29004KT P6SM FEW200=

USA.gov is the U.S. government's official web portal to all federal, state and local government web resources and services.